Time;durP1;ratioP1;P1;durP2;ratioP2;P2;SDS_P1;SDS_P2;PMS_P1;PMS_P2;Temp;Humidity;BMP_temperature;BMP_pressure;BME280_temperature;BME280_humidity;BME280_pressure;Samples;Min_cycle;Max_cycle;Signal;HPM_P1;HPM_P2
2023/12/24 00:01:13;;;;;;;1.60;1.10;;;10.30;98.20;;;;;;6135015;23;20476;-82
2023/12/24 00:03:42;;;;;;;1.60;1.10;;;10.30;98.20;;;;;;6148900;23;20423;-83
2023/12/24 00:06:08;;;;;;;1.60;1.20;;;10.30;98.20;;;;;;6133973;23;20522;-83
2023/12/24 00:08:36;;;;;;;1.60;1.20;;;10.30;98.20;;;;;;6147632;23;20437;-82
2023/12/24 00:11:02;;;;;;;1.60;1.10;;;10.40;98.20;;;;;;6133225;23;20443;-80
2023/12/24 00:13:29;;;;;;;1.70;1.40;;;10.40;98.20;;;;;;6147086;23;20866;-82
2023/12/24 00:15:56;;;;;;;1.60;1.10;;;10.40;98.20;;;;;;6133531;23;20516;-83
2023/12/24 00:18:23;;;;;;;1.60;1.20;;;10.40;98.20;;;;;;6147323;23;20515;-82
2023/12/24 00:20:51;;;;;;;1.60;1.10;;;10.40;98.20;;;;;;6144535;23;20425;-82
2023/12/24 00:23:18;;;;;;;1.60;1.10;;;10.40;98.20;;;;;;6147643;23;20421;-82
2023/12/24 00:25:45;;;;;;;1.60;1.10;;;10.40;98.20;;;;;;6130052;23;20465;-81
2023/12/24 00:28:12;;;;;;;1.60;1.10;;;10.40;98.20;;;;;;6083072;23;20453;-81
2023/12/24 00:30:39;;;;;;;1.60;1.10;;;10.40;98.20;;;;;;6122941;23;20504;-81
2023/12/24 00:33:06;;;;;;;1.67;1.23;;;10.40;98.20;;;;;;6081459;23;20461;-81
2023/12/24 00:35:33;;;;;;;1.60;1.20;;;10.40;98.20;;;;;;6121670;23;20433;-81
2023/12/24 00:38:02;;;;;;;1.60;1.10;;;10.40;98.20;;;;;;6081536;23;20521;-81
2023/12/24 00:40:29;;;;;;;1.60;1.10;;;10.40;98.20;;;;;;6122171;23;20452;-81
2023/12/24 00:42:55;;;;;;;1.60;1.10;;;10.40;98.20;;;;;;6080788;23;20450;-80
2023/12/24 00:45:22;;;;;;;1.60;1.00;;;10.40;98.20;;;;;;6121650;23;20652;-81
2023/12/24 00:47:49;;;;;;;1.60;1.30;;;10.30;98.20;;;;;;6080220;23;20782;-81
2023/12/24 00:50:16;;;;;;;1.60;1.10;;;10.30;98.20;;;;;;6124019;23;20449;-81
2023/12/24 00:52:43;;;;;;;1.60;1.10;;;10.30;98.20;;;;;;6084714;23;20450;-81
2023/12/24 00:55:11;;;;;;;1.60;1.10;;;10.20;98.20;;;;;;6126109;23;20438;-81
2023/12/24 00:57:38;;;;;;;1.60;1.20;;;10.20;98.20;;;;;;6084199;23;20450;-81
2023/12/24 01:00:06;;;;;;;1.60;1.10;;;10.20;98.20;;;;;;6121091;23;20461;-80
2023/12/24 01:02:33;;;;;;;1.60;1.10;;;10.20;98.20;;;;;;6085287;23;20885;-81
2023/12/24 01:05:00;;;;;;;1.60;1.10;;;10.20;98.20;;;;;;6121451;23;20955;-81
2023/12/24 01:07:27;;;;;;;1.60;1.10;;;10.10;98.20;;;;;;6087922;23;20450;-81
2023/12/24 01:09:54;;;;;;;1.60;1.10;;;10.10;98.20;;;;;;6119002;23;20444;-82
2023/12/24 01:12:22;;;;;;;1.60;1.10;;;10.20;98.20;;;;;;6092637;23;20472;-82
2023/12/24 01:14:49;;;;;;;1.60;1.10;;;10.20;98.20;;;;;;6120009;23;20448;-83
2023/12/24 01:17:16;;;;;;;1.60;1.20;;;10.20;98.20;;;;;;6091476;23;20450;-82
2023/12/24 01:19:44;;;;;;;1.60;1.10;;;10.20;98.20;;;;;;6122304;23;20504;-83
2023/12/24 01:22:11;;;;;;;1.60;1.10;;;10.30;98.20;;;;;;6092753;23;20517;-82
2023/12/24 01:24:38;;;;;;;1.60;1.10;;;10.30;98.20;;;;;;6118517;23;20798;-83
2023/12/24 01:27:05;;;;;;;1.60;1.20;;;10.30;98.20;;;;;;6094031;23;20454;-82
2023/12/24 01:29:34;;;;;;;1.60;1.20;;;10.30;98.20;;;;;;6116143;23;20426;-82
2023/12/24 01:32:00;;;;;;;1.60;1.10;;;10.30;98.20;;;;;;6093915;23;20450;-82
2023/12/24 01:34:27;;;;;;;1.60;1.10;;;10.30;98.20;;;;;;6116190;23;20452;-82
2023/12/24 01:36:54;;;;;;;1.60;1.10;;;10.30;98.20;;;;;;6096310;23;20563;-82
2023/12/24 01:39:21;;;;;;;1.60;1.20;;;10.20;98.20;;;;;;6113290;23;20444;-82
2023/12/24 01:41:48;;;;;;;1.60;1.10;;;10.10;98.20;;;;;;6096621;23;20493;-82
2023/12/24 01:44:14;;;;;;;1.60;1.10;;;10.10;98.20;;;;;;6111936;23;20466;-82
2023/12/24 01:46:45;;;;;;;1.60;1.10;;;10.10;98.20;;;;;;6097521;23;20450;-83
2023/12/24 01:49:14;;;;;;;1.60;1.10;;;10.10;98.20;;;;;;6110969;23;20516;-82
2023/12/24 01:51:41;;;;;;;1.60;1.10;;;10.10;98.20;;;;;;6098162;23;20533;-82
2023/12/24 01:54:08;;;;;;;1.60;1.20;;;10.10;98.20;;;;;;6110695;23;20448;-81
2023/12/24 01:56:35;;;;;;;1.60;1.10;;;10.00;98.20;;;;;;6100867;23;20478;-82
2023/12/24 01:59:03;;;;;;;1.60;1.10;;;10.10;98.20;;;;;;6109511;23;20446;-82
2023/12/24 02:01:30;;;;;;;1.60;1.10;;;10.10;98.20;;;;;;6100749;23;20458;-82
2023/12/24 02:03:58;;;;;;;1.60;1.20;;;10.10;98.20;;;;;;6108977;23;20524;-80
2023/12/24 02:06:26;;;;;;;1.60;1.20;;;10.10;98.20;;;;;;6103809;23;21052;-82
2023/12/24 02:08:53;;;;;;;1.60;1.10;;;10.10;98.20;;;;;;6108042;23;20953;-83
2023/12/24 02:11:22;;;;;;;1.60;1.10;;;10.10;98.20;;;;;;6104001;23;20451;-83
2023/12/24 02:13:49;;;;;;;1.60;1.10;;;10.10;98.20;;;;;;6108153;23;20424;-82
2023/12/24 02:16:19;;;;;;;1.60;1.20;;;10.10;98.20;;;;;;6103570;23;20746;-80
2023/12/24 02:18:46;;;;;;;1.60;1.10;;;10.10;98.20;;;;;;6106413;23;20405;-80
2023/12/24 02:21:14;;;;;;;1.60;1.10;;;10.20;98.20;;;;;;6103915;23;20454;-81
2023/12/24 02:23:41;;;;;;;1.60;1.10;;;10.20;98.20;;;;;;6106865;23;20431;-80
2023/12/24 02:26:16;;;;;;;1.60;1.20;;;10.20;98.20;;;;;;6101043;23;20477;-81
2023/12/24 02:28:46;;;;;;;1.60;1.10;;;10.20;98.20;;;;;;6106227;23;20510;-80
2023/12/24 02:31:16;;;;;;;1.60;1.10;;;10.20;98.20;;;;;;6104050;23;20477;-80
2023/12/24 02:33:44;;;;;;;1.60;1.10;;;10.20;98.20;;;;;;6105710;23;20432;-80
2023/12/24 02:36:14;;;;;;;1.60;1.00;;;10.20;98.20;;;;;;6112797;23;20960;-81
2023/12/24 02:38:41;;;;;;;1.60;1.10;;;10.20;98.20;;;;;;6107014;23;20812;-81
2023/12/24 02:41:08;;;;;;;1.60;1.20;;;10.20;98.20;;;;;;6114892;23;20493;-81
2023/12/24 02:43:35;;;;;;;1.80;1.60;;;10.10;98.20;;;;;;6109780;23;20501;-81
2023/12/24 02:46:02;;;;;;;1.60;1.23;;;10.10;98.20;;;;;;6112663;23;20453;-80
2023/12/24 02:48:28;;;;;;;1.60;1.00;;;10.10;98.20;;;;;;6106746;23;20422;-82
2023/12/24 02:50:55;;;;;;;1.60;1.20;;;10.10;98.20;;;;;;6107930;23;20748;-83
2023/12/24 02:53:23;;;;;;;1.60;1.10;;;10.10;98.20;;;;;;6103341;23;20448;-82
2023/12/24 02:55:50;;;;;;;1.60;1.10;;;10.10;98.20;;;;;;6115313;23;20440;-83
2023/12/24 02:58:17;;;;;;;1.60;1.10;;;10.10;98.20;;;;;;6105412;23;20432;-83
2023/12/24 03:00:44;;;;;;;1.60;1.10;;;10.00;98.20;;;;;;6138880;23;20818;-83
2023/12/24 03:03:11;;;;;;;1.60;1.10;;;10.00;98.20;;;;;;6083587;23;20437;-83
2023/12/24 03:05:37;;;;;;;1.60;1.17;;;10.00;98.20;;;;;;6098410;23;20531;-84
2023/12/24 03:08:05;;;;;;;1.60;1.10;;;10.00;98.20;;;;;;6083154;23;20518;-83
2023/12/24 03:10:33;;;;;;;1.60;1.10;;;10.00;98.20;;;;;;6103996;23;20494;-84
2023/12/24 03:13:00;;;;;;;1.60;1.10;;;10.00;98.20;;;;;;6087611;23;20481;-84
2023/12/24 03:15:27;;;;;;;1.60;1.10;;;10.00;98.20;;;;;;6102203;23;20512;-84
2023/12/24 03:17:54;;;;;;;1.60;1.20;;;10.00;98.20;;;;;;6085706;23;20457;-84
2023/12/24 03:20:21;;;;;;;1.60;1.10;;;10.00;98.20;;;;;;6101184;23;20431;-84
2023/12/24 03:22:47;;;;;;;1.60;1.10;;;10.00;98.20;;;;;;6083079;23;20489;-84
2023/12/24 03:25:15;;;;;;;1.60;1.10;;;10.00;98.20;;;;;;6116253;23;20450;-83
2023/12/24 03:27:43;;;;;;;1.60;1.10;;;10.00;98.20;;;;;;6089255;23;20454;-82
2023/12/24 03:30:11;;;;;;;1.60;1.20;;;10.00;98.20;;;;;;6126139;23;20418;-82
2023/12/24 03:32:37;;;;;;;1.60;1.20;;;10.00;98.20;;;;;;6087745;23;20539;-83
2023/12/24 03:35:05;;;;;;;1.60;1.00;;;10.00;98.20;;;;;;6125964;23;21046;-83
2023/12/24 03:37:32;;;;;;;1.60;1.00;;;10.00;98.20;;;;;;6092924;23;20823;-85
2023/12/24 03:40:05;;;;;;;1.60;1.10;;;10.00;98.20;;;;;;6127449;23;20862;-86
2023/12/24 03:42:46;;;;;;;1.60;1.10;;;10.00;98.20;;;;;;6089216;23;20450;-86
2023/12/24 03:45:24;;;;;;;1.60;1.30;;;10.00;98.20;;;;;;6132191;23;20493;-85
2023/12/24 03:48:01;;;;;;;1.60;1.10;;;10.00;98.20;;;;;;6082903;23;20520;-85
2023/12/24 03:50:47;;;;;;;1.60;1.10;;;10.00;98.20;;;;;;6132736;23;20430;-85
2023/12/24 03:53:22;;;;;;;1.67;1.30;;;10.00;98.20;;;;;;6076314;23;20445;-85
2023/12/24 03:55:49;;;;;;;1.60;1.10;;;10.00;98.20;;;;;;6116706;23;20447;-85
2023/12/24 03:58:16;;;;;;;1.67;1.30;;;10.00;98.20;;;;;;6110359;23;20528;-84
2023/12/24 04:00:45;;;;;;;1.60;1.10;;;10.00;98.20;;;;;;6138182;23;20417;-84
2023/12/24 04:03:13;;;;;;;1.60;1.10;;;10.00;98.20;;;;;;6088667;23;20880;-84
2023/12/24 04:06:03;;;;;;;1.60;1.10;;;10.00;98.20;;;;;;6138555;23;20476;-84
2023/12/24 04:08:44;;;;;;;1.60;1.10;;;10.10;98.20;;;;;;6087640;23;20873;-84
2023/12/24 04:11:14;;;;;;;1.63;1.20;;;10.10;98.20;;;;;;6117775;23;20434;-84
2023/12/24 04:13:41;;;;;;;1.60;1.10;;;10.10;98.20;;;;;;6107247;23;20517;-83
2023/12/24 04:16:09;;;;;;;1.63;1.17;;;10.10;98.20;;;;;;6105494;23;20898;-84
2023/12/24 04:18:36;;;;;;;1.60;1.10;;;10.10;98.20;;;;;;6104301;23;20843;-83
2023/12/24 04:21:04;;;;;;;1.60;1.10;;;10.10;98.20;;;;;;6106149;23;20449;-83
2023/12/24 04:23:31;;;;;;;1.60;1.20;;;10.10;98.20;;;;;;6102513;23;20481;-83
2023/12/24 04:25:58;;;;;;;1.60;1.10;;;10.10;98.20;;;;;;6106164;23;20446;-83
2023/12/24 04:28:25;;;;;;;1.60;1.10;;;10.10;98.20;;;;;;6111490;23;20422;-83
2023/12/24 04:30:52;;;;;;;1.60;1.20;;;10.10;98.20;;;;;;6118962;23;20421;-83
2023/12/24 04:33:20;;;;;;;1.60;1.10;;;10.10;98.20;;;;;;6101095;23;20915;-83
2023/12/24 04:35:50;;;;;;;1.60;1.10;;;10.10;98.20;;;;;;6111932;23;20449;-84
2023/12/24 04:38:16;;;;;;;1.60;1.10;;;10.10;98.20;;;;;;6099096;23;20429;-83
2023/12/24 04:40:43;;;;;;;1.60;1.10;;;10.10;98.20;;;;;;6126416;23;20512;-83
2023/12/24 04:43:10;;;;;;;1.60;1.10;;;10.10;98.20;;;;;;6082772;23;20528;-83
2023/12/24 04:45:43;;;;;;;1.60;1.10;;;10.10;98.20;;;;;;6125218;23;20849;-85
2023/12/24 04:48:10;;;;;;;1.60;1.10;;;10.10;98.20;;;;;;6084897;23;20793;-84
2023/12/24 04:54:03;;;;;;;1.60;1.17;;;10.10;98.20;;;;;;6069435;23;20950;-85
2023/12/24 04:56:33;;;;;;;1.60;1.10;;;10.10;98.20;;;;;;6110732;23;20843;-84
2023/12/24 04:59:14;;;;;;;1.60;1.20;;;10.10;98.20;;;;;;6121988;23;20421;-84
2023/12/24 05:01:41;;;;;;;1.60;1.10;;;10.10;98.20;;;;;;6107428;23;20493;-84
2023/12/24 05:04:17;;;;;;;1.60;1.10;;;10.10;98.20;;;;;;6115331;23;20477;-84
2023/12/24 05:06:50;;;;;;;1.60;1.27;;;10.10;98.20;;;;;;6108159;23;20450;-85
2023/12/24 05:09:31;;;;;;;1.60;1.10;;;10.10;98.20;;;;;;6117111;23;20428;-84
2023/12/24 05:11:58;;;;;;;1.60;1.10;;;10.10;98.20;;;;;;6104654;23;20455;-84
2023/12/24 05:14:34;;;;;;;1.60;1.13;;;10.10;98.20;;;;;;6119084;23;20437;-83
2023/12/24 05:17:02;;;;;;;1.60;1.10;;;10.10;98.20;;;;;;6100716;23;20454;-84
2023/12/24 05:19:31;;;;;;;1.70;1.30;;;10.10;98.20;;;;;;6118780;23;20787;-83
2023/12/24 05:21:57;;;;;;;1.60;1.30;;;10.10;98.20;;;;;;6096047;23;20482;-84
2023/12/24 05:24:32;;;;;;;1.60;1.10;;;10.10;98.20;;;;;;6116407;23;20545;-83
2023/12/24 05:26:59;;;;;;;1.63;1.20;;;10.10;98.20;;;;;;6096189;23;20513;-85
2023/12/24 05:29:26;;;;;;;1.67;1.30;;;10.10;98.20;;;;;;6130408;23;20428;-84
2023/12/24 05:31:54;;;;;;;1.70;1.20;;;10.10;98.20;;;;;;6097570;23;20457;-84
2023/12/24 05:34:32;;;;;;;1.60;1.10;;;10.10;98.20;;;;;;6123338;23;20780;-83
2023/12/24 05:37:23;;;;;;;1.60;1.10;;;10.10;98.20;;;;;;6094294;23;20529;-83
2023/12/24 05:39:51;;;;;;;1.60;1.07;;;10.10;98.20;;;;;;6128458;23;20421;-83
2023/12/24 05:42:18;;;;;;;1.60;1.10;;;10.10;98.20;;;;;;6090204;23;20525;-84
2023/12/24 05:44:48;;;;;;;1.70;1.20;;;10.10;98.20;;;;;;6127862;23;20529;-84
2023/12/24 05:47:33;;;;;;;1.60;1.10;;;10.10;98.20;;;;;;6093112;23;20705;-85
2023/12/24 05:50:20;;;;;;;1.60;1.10;;;10.10;98.20;;;;;;6128815;23;20425;-85
2023/12/24 05:52:49;;;;;;;1.60;1.13;;;10.10;98.20;;;;;;6080024;23;20518;-84
2023/12/24 05:55:31;;;;;;;1.60;1.10;;;10.10;98.20;;;;;;6134552;23;20944;-84
2023/12/24 05:58:32;;;;;;;1.60;1.10;;;10.10;98.20;;;;;;6095904;23;20451;-84
2023/12/24 06:01:08;;;;;;;1.60;1.10;;;10.10;98.20;;;;;;6078019;23;20429;-83
2023/12/24 06:03:38;;;;;;;1.70;1.37;;;10.00;98.20;;;;;;6115912;23;20525;-83
2023/12/24 06:06:05;;;;;;;1.60;1.20;;;10.00;98.20;;;;;;6118076;23;20524;-83
2023/12/24 06:08:38;;;;;;;1.60;1.20;;;10.10;98.20;;;;;;6106024;23;20485;-83
2023/12/24 06:11:16;;;;;;;1.60;1.10;;;10.10;98.20;;;;;;6116544;23;20489;-84
2023/12/24 06:13:42;;;;;;;1.60;1.10;;;10.00;98.20;;;;;;6106046;23;20493;-84
2023/12/24 06:16:11;;;;;;;1.60;1.10;;;10.10;98.20;;;;;;6113542;23;21009;-83
2023/12/24 06:18:39;;;;;;;1.60;1.10;;;10.10;98.20;;;;;;6106605;23;20798;-83
2023/12/24 06:21:05;;;;;;;1.60;1.20;;;10.10;98.20;;;;;;6105683;23;20512;-83
2023/12/24 06:23:33;;;;;;;1.60;1.10;;;10.10;98.20;;;;;;6102850;23;20508;-82
2023/12/24 06:26:00;;;;;;;1.60;1.10;;;10.10;98.20;;;;;;6104048;23;20729;-82
2023/12/24 06:28:29;;;;;;;1.60;1.10;;;10.10;98.20;;;;;;6099729;23;20512;-82
2023/12/24 06:30:56;;;;;;;1.60;1.20;;;10.10;98.20;;;;;;6106159;23;20423;-82
2023/12/24 06:33:23;;;;;;;1.60;1.10;;;10.10;98.20;;;;;;6108670;23;20417;-81
2023/12/24 06:35:50;;;;;;;1.60;1.10;;;10.10;98.20;;;;;;6108485;23;20951;-82
2023/12/24 06:38:17;;;;;;;1.60;1.10;;;10.10;98.20;;;;;;6098219;23;20452;-82
2023/12/24 06:40:43;;;;;;;1.60;1.20;;;10.20;98.20;;;;;;6133573;23;20417;-82
2023/12/24 06:43:10;;;;;;;1.60;1.10;;;10.20;98.20;;;;;;6081876;23;20465;-83
2023/12/24 06:45:38;;;;;;;1.60;1.10;;;10.20;98.20;;;;;;6123151;23;20473;-82
2023/12/24 06:48:05;;;;;;;1.60;1.10;;;10.20;98.20;;;;;;6081287;23;20446;-83
2023/12/24 06:50:32;;;;;;;1.60;1.10;;;10.20;98.20;;;;;;6123491;23;20418;-82
2023/12/24 06:52:59;;;;;;;1.60;1.10;;;10.20;98.20;;;;;;6083522;23;20485;-82
2023/12/24 06:55:26;;;;;;;2.03;1.83;;;10.20;98.20;;;;;;6123061;23;20446;-82
2023/12/24 06:57:55;;;;;;;1.60;1.10;;;10.20;98.20;;;;;;6084710;23;20456;-82
2023/12/24 07:00:24;;;;;;;1.60;1.10;;;10.30;98.20;;;;;;6135355;23;20517;-82
2023/12/24 07:02:53;;;;;;;1.60;1.10;;;10.30;98.20;;;;;;6086036;23;20455;-83
2023/12/24 07:05:22;;;;;;;1.60;1.17;;;10.30;98.20;;;;;;6122305;23;20442;-82
2023/12/24 07:07:50;;;;;;;1.60;1.10;;;10.30;98.20;;;;;;6083798;23;20446;-82
2023/12/24 07:10:17;;;;;;;1.60;1.10;;;10.30;98.20;;;;;;6133495;23;20736;-82
2023/12/24 07:12:44;;;;;;;1.60;1.17;;;10.30;98.20;;;;;;6085567;23;20486;-82
2023/12/24 07:15:11;;;;;;;1.60;1.10;;;10.30;98.20;;;;;;6130892;23;20477;-81
2023/12/24 07:17:38;;;;;;;1.60;1.10;;;10.30;98.20;;;;;;6084986;23;20446;-81
2023/12/24 07:20:16;;;;;;;1.60;1.20;;;10.40;98.20;;;;;;6129050;23;20520;-82
2023/12/24 07:22:43;;;;;;;1.60;1.10;;;10.40;98.20;;;;;;6084364;23;20470;-82
2023/12/24 07:25:16;;;;;;;1.60;1.10;;;10.40;98.20;;;;;;6129560;23;20952;-81
2023/12/24 07:27:44;;;;;;;1.60;1.10;;;10.40;98.20;;;;;;6084451;23;20450;-81
2023/12/24 07:30:17;;;;;;;1.60;1.00;;;10.40;98.20;;;;;;6121243;23;20453;-81
2023/12/24 07:32:44;;;;;;;1.60;1.10;;;10.40;98.20;;;;;;6081884;23;20457;-81
2023/12/24 07:35:13;;;;;;;1.60;1.10;;;10.50;98.20;;;;;;6122917;23;20446;-81
2023/12/24 07:37:41;;;;;;;1.60;1.10;;;10.50;98.20;;;;;;6082740;23;20518;-80
2023/12/24 07:40:48;;;;;;;1.60;1.03;;;10.50;98.20;;;;;;6116248;23;20516;-80
2023/12/24 07:43:15;;;;;;;1.60;1.10;;;10.50;98.20;;;;;;6081031;23;20457;-80
2023/12/24 07:45:42;;;;;;;1.60;1.10;;;10.50;98.20;;;;;;6120897;23;20536;-80
2023/12/24 07:48:09;;;;;;;1.60;1.00;;;10.50;98.20;;;;;;6081742;23;20544;-80
2023/12/24 07:50:37;;;;;;;1.60;1.20;;;10.50;98.20;;;;;;6133018;23;20825;-80
2023/12/24 07:53:04;;;;;;;1.60;1.10;;;10.50;98.20;;;;;;6082814;23;20450;-82
2023/12/24 07:55:31;;;;;;;1.60;1.10;;;10.50;98.20;;;;;;6131444;23;20446;-81
2023/12/24 07:57:58;;;;;;;1.60;1.10;;;10.60;98.20;;;;;;6083063;23;20550;-81
2023/12/24 08:00:25;;;;;;;1.60;1.10;;;10.60;98.20;;;;;;6131564;23;20664;-80
2023/12/24 08:02:52;;;;;;;1.60;1.00;;;10.60;98.20;;;;;;6082837;23;20455;-81
2023/12/24 08:05:19;;;;;;;1.60;1.00;;;10.60;98.20;;;;;;6122676;23;20951;-80
2023/12/24 08:07:47;;;;;;;1.67;1.20;;;10.60;98.20;;;;;;6083723;23;20541;-80
2023/12/24 08:10:14;;;;;;;1.60;1.13;;;10.70;98.20;;;;;;6132653;23;20803;-80
2023/12/24 08:12:41;;;;;;;1.67;1.20;;;10.70;98.20;;;;;;6086151;23;20451;-80
2023/12/24 08:15:08;;;;;;;1.60;1.10;;;10.70;98.20;;;;;;6125600;23;20461;-80
2023/12/24 08:17:35;;;;;;;1.60;1.10;;;10.70;98.20;;;;;;6090445;23;20526;-80
2023/12/24 08:20:02;;;;;;;1.60;1.10;;;10.70;98.20;;;;;;6122699;23;20966;-80
2023/12/24 08:22:29;;;;;;;1.63;1.20;;;10.70;98.20;;;;;;6087650;23;20450;-80
2023/12/24 08:24:57;;;;;;;1.67;1.20;;;10.70;98.20;;;;;;6121780;23;20449;-80
2023/12/24 08:27:24;;;;;;;1.63;1.13;;;10.80;98.20;;;;;;6090914;23;20474;-80
2023/12/24 08:29:51;;;;;;;1.60;1.10;;;10.80;98.20;;;;;;6119938;23;20422;-78
2023/12/24 08:32:18;;;;;;;1.60;1.20;;;10.80;98.20;;;;;;6089522;23;20533;-78
2023/12/24 08:34:45;;;;;;;1.60;1.00;;;10.80;98.20;;;;;;6117622;23;20450;-78
2023/12/24 08:37:12;;;;;;;1.60;1.03;;;10.80;98.20;;;;;;6090732;23;20472;-78
2023/12/24 08:39:39;;;;;;;1.60;1.10;;;10.90;98.20;;;;;;6120266;23;20422;-79
2023/12/24 08:42:07;;;;;;;1.60;1.10;;;10.90;98.20;;;;;;6097550;23;20474;-79
2023/12/24 08:44:35;;;;;;;1.67;1.10;;;10.90;98.20;;;;;;6117311;23;20470;-80
2023/12/24 08:47:02;;;;;;;1.60;1.10;;;10.90;98.20;;;;;;6095240;23;20454;-78
2023/12/24 08:49:29;;;;;;;1.60;1.10;;;10.90;98.20;;;;;;6127796;23;20521;-80
2023/12/24 08:51:55;;;;;;;1.60;1.00;;;11.00;98.20;;;;;;6099061;23;20481;-79
2023/12/24 09:10:21;;;;;;;1.60;1.10;;;10.90;98.20;;;;;;6130081;23;20449;-81
2023/12/24 09:12:49;;;;;;;1.60;1.10;;;10.90;98.20;;;;;;6144713;23;20457;-80
2023/12/24 09:23:31;;;;;;;1.60;1.10;;;11.00;98.20;;;;;;6089770;23;20458;-80
2023/12/24 09:25:59;;;;;;;1.60;1.10;;;11.00;98.20;;;;;;6109045;23;20855;-80
2023/12/24 09:31:23;;;;;;;1.60;1.10;;;11.00;98.20;;;;;;6116665;23;20811;-82
2023/12/24 09:37:48;;;;;;;1.60;1.10;;;11.10;98.20;;;;;;6147895;23;20521;-83
2023/12/24 09:40:16;;;;;;;1.60;1.20;;;11.10;98.20;;;;;;6137517;23;20421;-80
2023/12/24 09:42:51;;;;;;;1.60;1.07;;;11.10;98.20;;;;;;6158461;23;20445;-82
2023/12/24 09:48:23;;;;;;;1.60;1.10;;;11.10;98.20;;;;;;6119776;23;20429;-81
2023/12/24 09:50:50;;;;;;;1.60;1.10;;;11.20;98.20;;;;;;6111449;23;20430;-81
2023/12/24 09:53:17;;;;;;;1.60;1.00;;;11.20;98.20;;;;;;6152992;23;20418;-79
2023/12/24 09:55:44;;;;;;;1.60;1.00;;;11.20;98.20;;;;;;6123146;23;20444;-80
2023/12/24 09:58:12;;;;;;;1.63;1.10;;;11.20;98.20;;;;;;6131310;23;20628;-79
2023/12/24 10:00:40;;;;;;;1.60;1.10;;;11.20;98.20;;;;;;6134362;23;20417;-79
2023/12/24 10:03:07;;;;;;;1.60;1.10;;;11.20;98.20;;;;;;6135928;23;20449;-79
2023/12/24 10:05:34;;;;;;;1.60;1.00;;;11.20;98.20;;;;;;6123460;23;20442;-80
2023/12/24 10:08:02;;;;;;;1.67;1.20;;;11.20;98.20;;;;;;6132356;23;20535;-79
2023/12/24 10:10:30;;;;;;;1.70;1.20;;;11.30;98.20;;;;;;6132437;23;20469;-77
2023/12/24 10:13:05;;;;;;;1.97;1.77;;;11.30;98.20;;;;;;6130229;23;20480;-77
2023/12/24 10:15:38;;;;;;;1.60;1.10;;;11.30;98.20;;;;;;6124090;23;20525;-78
2023/12/24 10:18:23;;;;;;;1.60;1.20;;;11.30;98.20;;;;;;6129502;23;20445;-78
2023/12/24 10:20:50;;;;;;;1.63;1.13;;;11.30;98.20;;;;;;6077641;23;20455;-78
2023/12/24 10:23:20;;;;;;;1.63;1.10;;;11.40;98.20;;;;;;6070790;23;20462;-78
2023/12/24 10:26:02;;;;;;;1.60;1.10;;;11.40;98.20;;;;;;6067909;23;20436;-78
2023/12/24 10:28:32;;;;;;;1.60;1.10;;;11.40;98.20;;;;;;6081529;23;20946;-78
2023/12/24 10:31:10;;;;;;;1.60;1.10;;;11.40;98.20;;;;;;6060355;23;20434;-78
2023/12/24 10:33:37;;;;;;;1.67;1.20;;;11.40;98.20;;;;;;6081370;23;20434;-78
2023/12/24 10:36:06;;;;;;;1.60;1.10;;;11.40;98.20;;;;;;6053979;23;20458;-78
2023/12/24 10:38:34;;;;;;;1.60;1.10;;;11.40;98.20;;;;;;6080644;23;20794;-78
2023/12/24 10:41:01;;;;;;;1.60;1.10;;;11.40;98.20;;;;;;6060265;23;20424;-78
2023/12/24 10:43:28;;;;;;;1.60;1.17;;;11.40;98.20;;;;;;6082553;23;20479;-78
2023/12/24 10:45:55;;;;;;;1.60;1.10;;;11.40;98.20;;;;;;6050462;23;20475;-78
2023/12/24 10:48:24;;;;;;;1.60;1.10;;;11.40;98.20;;;;;;6082114;23;20447;-78
2023/12/24 10:50:51;;;;;;;1.70;1.20;;;11.40;98.20;;;;;;6059512;23;20498;-79
2023/12/24 10:53:18;;;;;;;1.60;1.10;;;11.40;98.20;;;;;;6084469;23;20724;-79
2023/12/24 10:55:55;;;;;;;1.60;1.10;;;11.40;98.20;;;;;;6064541;23;20987;-79
2023/12/24 10:58:38;;;;;;;1.60;1.10;;;11.40;98.20;;;;;;6076181;23;20966;-78
2023/12/24 11:01:07;;;;;;;1.60;1.10;;;11.40;98.20;;;;;;6077753;23;20784;-80
2023/12/24 11:03:49;;;;;;;1.60;1.10;;;11.40;98.20;;;;;;6094704;23;20514;-79
2023/12/24 11:06:47;;;;;;;1.60;1.10;;;11.40;98.20;;;;;;6085496;23;20493;-79
2023/12/24 11:09:44;;;;;;;1.60;1.10;;;11.40;98.20;;;;;;6090977;23;20529;-78
2023/12/24 11:12:10;;;;;;;1.60;1.10;;;11.40;98.20;;;;;;6080530;23;20459;-78
2023/12/24 11:14:40;;;;;;;1.60;1.10;;;11.40;98.20;;;;;;6092039;23;20522;-78
2023/12/24 11:17:08;;;;;;;1.60;1.10;;;11.40;98.20;;;;;;6082169;23;20446;-79
2023/12/24 11:19:40;;;;;;;1.60;1.03;;;11.40;98.20;;;;;;6104637;23;20528;-78
2023/12/24 11:22:12;;;;;;;1.63;1.20;;;11.40;98.20;;;;;;6107308;23;20835;-79
2023/12/24 11:24:44;;;;;;;1.60;1.10;;;11.40;98.20;;;;;;6131361;23;20434;-78
2023/12/24 11:27:11;;;;;;;1.60;1.00;;;11.50;98.20;;;;;;6110510;23;20985;-78
2023/12/24 11:29:52;;;;;;;1.60;1.10;;;11.50;98.20;;;;;;6120453;23;20453;-78
2023/12/24 11:32:45;;;;;;;1.60;1.00;;;11.50;98.20;;;;;;6106410;23;20787;-78
2023/12/24 11:35:52;;;;;;;1.63;1.10;;;11.50;98.20;;;;;;6052413;23;20578;-78
2023/12/24 11:38:41;;;;;;;1.63;1.10;;;11.50;98.20;;;;;;6078909;23;20462;-77
2023/12/24 11:41:09;;;;;;;1.60;1.10;;;11.50;98.20;;;;;;6105364;23;20454;-78
2023/12/24 11:43:39;;;;;;;1.60;1.10;;;11.60;98.20;;;;;;6128151;23;20923;-78
2023/12/24 11:46:07;;;;;;;1.60;1.10;;;11.60;98.20;;;;;;6105534;23;20533;-78
2023/12/24 11:48:35;;;;;;;1.60;1.10;;;11.60;98.20;;;;;;6118122;23;20812;-78
2023/12/24 11:51:07;;;;;;;1.63;1.10;;;11.60;98.20;;;;;;6105882;23;20433;-78
2023/12/24 11:53:35;;;;;;;1.70;1.20;;;11.60;98.20;;;;;;6128894;23;20485;-78
2023/12/24 11:56:10;;;;;;;1.60;1.10;;;11.60;98.20;;;;;;6107414;23;20452;-78
2023/12/24 11:58:38;;;;;;;1.60;1.10;;;11.70;98.20;;;;;;6118884;23;20418;-78
2023/12/24 12:01:05;;;;;;;1.60;1.10;;;11.70;98.20;;;;;;6106306;23;20425;-78
2023/12/24 12:03:33;;;;;;;1.60;1.10;;;11.70;98.20;;;;;;6120094;23;20457;-78
2023/12/24 12:06:00;;;;;;;1.70;1.20;;;11.70;98.20;;;;;;6104862;23;20539;-78
2023/12/24 12:08:29;;;;;;;1.60;1.10;;;11.80;98.20;;;;;;6119212;23;21023;-78
2023/12/24 12:10:56;;;;;;;1.60;1.10;;;11.80;98.20;;;;;;6106914;23;20418;-79
2023/12/24 12:13:23;;;;;;;1.60;1.10;;;11.80;98.20;;;;;;6120996;23;20477;-78
2023/12/24 12:15:50;;;;;;;1.63;1.10;;;11.80;98.20;;;;;;6122243;23;20524;-79
2023/12/24 12:18:18;;;;;;;1.60;1.00;;;11.90;98.20;;;;;;6137470;23;20442;-80
2023/12/24 12:20:45;;;;;;;1.60;1.10;;;11.90;98.20;;;;;;6136904;23;20421;-80
2023/12/24 12:23:12;;;;;;;1.60;1.10;;;11.90;98.20;;;;;;6085418;23;20430;-80
2023/12/24 12:25:41;;;;;;;1.63;1.00;;;11.90;98.20;;;;;;6124137;23;20815;-80
2023/12/24 12:28:27;;;;;;;1.60;1.10;;;11.90;98.20;;;;;;6107921;23;20445;-81
2023/12/24 12:31:31;;;;;;;1.60;1.10;;;11.90;98.20;;;;;;6132940;23;20469;-84
2023/12/24 13:01:26;;;;;;;1.60;1.10;;;11.70;98.20;;;;;;5983242;23;20413;-82
2023/12/24 13:09:17;;;;;;;1.60;1.10;;;11.60;98.20;;;;;;6143904;23;20479;-80
2023/12/24 13:12:10;;;;;;;1.60;1.07;;;11.60;98.20;;;;;;6136377;23;20910;-80
2023/12/24 13:17:43;;;;;;;1.60;1.10;;;11.60;98.20;;;;;;6093810;23;20444;-80
2023/12/24 13:20:27;;;;;;;1.60;1.00;;;11.60;98.20;;;;;;6094214;23;20652;-78
2023/12/24 13:23:03;;;;;;;1.60;1.10;;;11.60;98.20;;;;;;6075781;23;20442;-80
2023/12/24 13:25:33;;;;;;;1.60;1.10;;;11.50;98.20;;;;;;6094957;23;20446;-80
2023/12/24 13:28:00;;;;;;;1.60;1.10;;;11.50;98.20;;;;;;6099568;23;20449;-80
2023/12/24 13:30:32;;;;;;;1.60;1.10;;;11.50;98.20;;;;;;6101059;23;20446;-79
2023/12/24 13:33:03;;;;;;;1.60;1.00;;;11.50;98.20;;;;;;6100655;23;20441;-80
2023/12/24 13:38:33;;;;;;;;;;;;;;;;;;;;;
2023/12/24 13:41:04;;;;;;;1.60;1.10;;;11.50;98.20;;;;;;6088641;23;20458;-81
2023/12/24 13:43:37;;;;;;;1.60;1.10;;;11.50;98.20;;;;;;6119534;23;20429;-81
2023/12/24 13:46:08;;;;;;;1.67;1.20;;;11.50;98.20;;;;;;6082414;23;20473;-81
2023/12/24 13:52:31;;;;;;;1.60;1.10;;;11.50;98.20;;;;;;6099087;23;20456;-82
2023/12/24 13:55:15;;;;;;;1.60;1.10;;;11.50;98.20;;;;;;6127132;23;20793;-82
2023/12/24 14:00:50;;;;;;;1.60;1.00;;;11.60;98.20;;;;;;6082964;23;20505;-79
2023/12/24 14:03:25;;;;;;;1.60;1.07;;;11.60;98.20;;;;;;6138022;23;20462;-81
2023/12/24 14:05:56;;;;;;;1.60;1.00;;;11.60;98.20;;;;;;6077294;23;20442;-79
2023/12/24 14:08:23;;;;;;;2.63;2.03;;;11.60;98.20;;;;;;6143345;23;20430;-80
2023/12/24 14:11:08;;;;;;;;;;;;;;;;;;;;;
2023/12/24 14:13:41;;;;;;;1.60;1.10;;;11.60;98.20;;;;;;6029171;23;20432;-79
2023/12/24 14:19:34;;;;;;;1.60;1.00;;;11.70;98.20;;;;;;6011661;23;20428;-80
2023/12/24 14:22:13;;;;;;;1.63;1.10;;;11.70;98.20;;;;;;6028665;23;20529;-79
2023/12/24 14:25:29;;;;;;;1.60;1.10;;;11.70;98.20;;;;;;6097756;23;20497;-81
2023/12/24 14:37:23;;;;;;;1.60;1.00;;;11.90;98.20;;;;;;5941155;23;20473;-80
2023/12/24 14:39:59;;;;;;;1.60;1.00;;;11.90;98.20;;;;;;6009460;23;20432;-79